M I D A S
Marine Information and Data Acquisition System
Tripno 247 of the Zeeleeuw from 2002-04-22 07:12:33 to 2002-04-22 14:24:39
Back to CruiseResearch ActivitiesStationsMapUnderway DataData graphs

EquipmentUnitsComment
TimeDGPSUTC
LatitudeDGPSDM.mWGS84
LongitudeDGPSDM.mWGS84
TemperatureSBE03/SBE38deg celciusITS90
ConductivitySBE21S/mITS90
SalinitySBE21 Practical Salinity Units
ChlorophylAChelsea fluorimeterg/lCalibrated in Aceton
Missing or incorrect values are displayed as -999
Sea surface data collected by the RV Zeeleeuw from 2002-04-22 07:12:33 to 2002-04-22 14:24:39
Time Latitude Longitude Temperature Conductivity Salinity ChlorophylA
2002-04-22 07:13:37 51°16.129 2°53.501 18.035817 0.083824 0.393768  
2002-04-22 07:14:37 51°16.329 2°53.327 19.317364 0.083824 0.393804  
2002-04-22 07:15:37 51°16.535 2°53.162 20.496192 0.083824 0.39382  
2002-04-22 07:16:37 51°16.739 2°53.001 22.485358 0.083824 0.39383  
2002-04-22 07:17:37 51°16.932 2°52.814 24.794028 0.083824 0.39384  
2002-04-22 07:18:37 51°17.128 2°52.628 26.821476 0.083824 0.393861  
2002-04-22 07:19:37 51°17.318 2°52.432 28.619521 0.083824 0.393897  
2002-04-22 07:20:37 51°17.483 2°52.188 30.56862 0.083824 0.393902  
2002-04-22 07:21:37 51°17.628 2°51.919 32.456235 0.083824 0.393922  
2002-04-22 07:22:37 51°17.757 2°51.637 34.772064 0.083824 0.393938  
2002-04-22 07:23:37 51°17.888 2°51.358 36.540915 0.083824 0.393953  
2002-04-22 07:24:38 51°18.02 2°51.067 38.393714 0.083824 0.393969  
2002-04-22 07:25:37 51°18.148 2°50.783 40.438653 0.083725 0.393516  
2002-04-22 07:26:37 51°18.275 2°50.492 42.038415 0.083725 0.393542  
2002-04-22 07:27:37 51°18.4 2°50.201 44.17744 0.083725 0.393572  
2002-04-22 07:28:38 51°18.531 2°49.902 45.743676 0.083725 0.393619  
2002-04-22 07:29:37 51°18.651 2°49.612 47.231772 0.083725 0.39367  
2002-04-22 07:30:37 51°18.771 2°49.324 48.529124 0.083725 0.393726  
2002-04-22 07:31:37 51°18.892 2°49.038 -999 0.083725 0.393788  
2002-04-22 07:32:37 51°19.013 2°48.746 -999 0.083725 0.39384  
2002-04-22 07:33:37 51°19.135 2°48.456 -999 0.083725 0.393896  
2002-04-22 07:34:37 51°19.255 2°48.166 -999 0.083725 0.393979  
2002-04-22 07:35:37 51°19.38 2°47.876 -999 0.083626 0.393572  
2002-04-22 07:36:37 51°19.503 2°47.581 -999 0.083626 0.393644  
2002-04-22 07:37:38 51°19.632 2°47.284 -999 0.083626 0.393726  
2002-04-22 07:38:38 51°19.735 2°46.977 -999 0.083626 0.393783  
2002-04-22 07:39:37 51°19.811 2°46.657 -999 0.083528 0.393386  
2002-04-22 07:40:38 51°19.89 2°46.331 -999 0.083528 0.393473  
2002-04-22 07:41:38 51°19.965 2°46.017 -999 0.083528 0.393561  
2002-04-22 07:42:37 51°20.042 2°45.709 -999 0.083429 0.393174  
2002-04-22 07:43:37 51°20.122 2°45.393 -999 0.083429 0.393251  
2002-04-22 07:44:37 51°20.191 2°45.07 -999 0.083429 0.393354  
2002-04-22 07:45:37 51°20.25 2°44.742 -999 0.083429 0.393431  
2002-04-22 07:46:37 51°20.307 2°44.415 -999 0.08333 0.393039  
2002-04-22 07:47:37 51°20.362 2°44.088 -999 0.08333 0.393137  
2002-04-22 07:48:37 51°20.417 2°43.758 -999 0.08333 0.393225  
2002-04-22 07:49:37 51°20.457 2°43.427 -999 0.083232 0.392837  
2002-04-22 07:51:07 51°20.5 2°43.086 3.305957 0.083232 0.392981  
2002-04-22 07:52:08 51°20.547 2°42.99 -999 0.083232 0.393074  
2002-04-22 07:53:07 51°20.631 2°42.833 13.563979 0.083133 0.392687  
2002-04-22 07:54:07 51°20.723 2°42.565 -999 0.083133 0.392759  
2002-04-22 07:55:08 51°20.78 2°42.258 -999 0.083133 0.392883  
2002-04-22 07:56:07 51°20.781 2°41.94 -999 0.083133 0.39296  
2002-04-22 07:57:07 51°20.796 2°41.609 -999 0.083034 0.392582  
2002-04-22 07:58:07 51°20.813 2°41.276 -999 0.083034 0.39267  
2002-04-22 07:59:07 51°20.832 2°40.938 -999 0.083034 0.392748  
2002-04-22 08:00:08 51°20.85 2°40.593 -999 0.083034 0.392846  
2002-04-22 08:01:07 51°20.868 2°40.262 -999 0.082936 0.392452  
2002-04-22 08:02:08 51°20.887 2°39.921 -999 0.082936 0.39254  
2002-04-22 08:03:08 51°20.906 2°39.584 -999 0.082936 0.392628  
2002-04-22 08:04:07 51°20.925 2°39.256 -999 0.082936 0.392721  
2002-04-22 08:05:08 51°20.945 2°38.919 -999 0.082837 0.392327  
2002-04-22 08:06:08 51°20.966 2°38.583 -999 0.082837 0.392415  
2002-04-22 08:07:08 51°20.985 2°38.247 -999 0.082837 0.392503  
2002-04-22 08:08:07 51°21.006 2°37.917 -999 0.082837 0.392586  
2002-04-22 08:09:08 51°21.03 2°37.576 -999 0.082738 0.392202  
2002-04-22 08:10:07 51°21.053 2°37.243 -999 0.082738 0.39229  
2002-04-22 08:11:07 51°21.077 2°36.902 -999 0.082738 0.392389  
2002-04-22 08:12:08 51°21.096 2°36.563 -999 0.082738 0.392482  
2002-04-22 08:13:07 51°21.114 2°36.241 -999 0.08264 0.392098  
2002-04-22 08:14:07 51°21.133 2°35.915 -999 0.08264 0.392191  
2002-04-22 08:15:07 51°21.154 2°35.588 -999 0.08264 0.392295  
2002-04-22 08:16:08 51°21.178 2°35.255 -999 0.082541 0.39191  
2002-04-22 08:17:08 51°21.202 2°34.922 -999 0.082541 0.392009  
2002-04-22 08:18:08 51°21.227 2°34.587 -999 0.082541 0.392107  
2002-04-22 08:19:07 51°21.253 2°34.259 -999 0.082541 0.392206  
2002-04-22 08:20:08 51°21.28 2°33.917 -999 0.082541 0.392305  
2002-04-22 08:21:07 51°21.308 2°33.584 -999 0.082442 0.39192  
2002-04-22 08:22:07 51°21.339 2°33.244 -999 0.082442 0.392013  
2002-04-22 08:23:07 51°21.397 2°32.905 -999 0.082344 0.391644  
2002-04-22 08:24:08 51°21.496 2°32.582 -999 0.082344 0.391747  
2002-04-22 08:25:07 51°21.579 2°32.267 -999 0.082344 0.391846  
2002-04-22 08:26:07 51°21.666 2°31.949 -999 0.082344 0.39194  
2002-04-22 08:27:08 51°21.826 2°31.698 -999 0.082245 0.391559  
2002-04-22 08:28:08 51°22.032 2°31.54 -999 0.082245 0.391664  
2002-04-22 08:29:08 51°22.262 2°31.447 -999 0.082245 0.391752  
2002-04-22 08:30:08 51°22.484 2°31.335 49.857806 0.082146 0.391387  
2002-04-22 08:31:08 51°22.645 2°31.107 49.665462 0.082146 0.391465  
2002-04-22 08:32:07 51°22.704 2°30.801 49.696468 0.082146 0.391548  
2002-04-22 08:33:07 51°22.714 2°30.477 49.055465 0.082146 0.391653  
2002-04-22 08:34:07 51°22.703 2°30.158 48.139295 0.082047 0.391287  
2002-04-22 08:35:08 51°22.694 2°29.831 48.348146 0.082047 0.391397  
2002-04-22 08:36:07 51°22.686 2°29.517 47.644429 0.082047 0.391511  
2002-04-22 08:37:07 51°22.677 2°29.198 47.075726 0.082047 0.391616  
2002-04-22 08:38:07 51°22.66 2°28.878 46.544042 0.081949 0.39124  
2002-04-22 08:39:08 51°22.645 2°28.552 46.508092 0.081949 0.391354  
2002-04-22 08:40:08 51°22.65 2°28.223 45.815715 0.081949 0.391485  
2002-04-22 08:41:08 51°22.657 2°27.887 45.670677 0.081949 0.391621  
2002-04-22 08:42:07 51°22.662 2°27.558 45.118861 0.08185 0.391265  
2002-04-22 08:43:08 51°22.667 2°27.219 44.904788 0.08185 0.391401  
2002-04-22 08:44:07 51°22.671 2°26.889 44.611174 0.08185 0.391532  
2002-04-22 08:45:08 51°22.676 2°26.549 43.858296 0.081751 0.391171  
2002-04-22 08:46:08 51°22.707 2°26.221 44.303762 0.081751 0.391286  
2002-04-22 08:47:07 51°22.854 2°25.976 43.393844 0.081751 0.391422  
2002-04-22 08:48:07 51°23.071 2°25.863 43.199635 0.081653 0.391055  
2002-04-22 08:49:08 51°23.31 2°25.821 42.032232 0.081653 0.391186  
2002-04-22 08:50:07 51°23.545 2°25.807 42.113339 0.081653 0.391297  
2002-04-22 08:51:08 51°23.789 2°25.826 41.473811 0.081653 0.391386  
2002-04-22 08:52:07 51°24.026 2°25.861 41.012707 0.081653 0.391517  
2002-04-22 08:53:08 51°24.273 2°25.878 41.197128 0.081554 0.391108  
2002-04-22 08:54:07 51°24.511 2°25.905 41.166839 0.081554 0.391218  
2002-04-22 08:55:07 51°24.755 2°25.934 40.431081 0.081554 0.391323  
2002-04-22 08:56:08 51°25.004 2°25.967 41.267159 0.081554 0.391407  
2002-04-22 08:57:08 51°25.248 2°25.997 40.059344 0.081554 0.391502  
2002-04-22 08:58:07 51°25.487 2°26.027 39.428296 0.081554 0.391623  
2002-04-22 08:59:08 51°25.732 2°26.054 38.687129 0.081554 0.391723  
2002-04-22 09:00:08 51°25.973 2°26.081 39.340072 0.081455 0.391324  
2002-04-22 09:01:08 51°26.213 2°26.106 39.083435 0.081455 0.391434  
2002-04-22 09:02:07 51°26.45 2°26.131 39.053294 0.081455 0.391524  
2002-04-22 09:03:08 51°26.694 2°26.155 38.49342 0.081455 0.391635  
2002-04-22 09:04:08 51°26.935 2°26.193 38.067698 0.081455 0.391714  
2002-04-22 09:05:07 51°27.172 2°26.223 38.159577 0.081357 0.391356  
2002-04-22 09:06:07 51°27.414 2°26.248 38.177629 0.081357 0.39143  
2002-04-22 09:07:08 51°27.659 2°26.322 37.988775 0.081357 0.391541  
2002-04-22 09:08:08 51°27.902 2°26.378 37.175392 0.081357 0.391668  
2002-04-22 09:09:07 51°28.137 2°26.439 37.266691 0.081357 0.391747  
2002-04-22 09:10:08 51°28.383 2°26.503 36.946864 0.081357 0.391853  
2002-04-22 09:11:08 51°28.596 2°26.594 36.168411 0.081357 0.391943  
2002-04-22 09:12:08 51°28.695 2°26.729 35.605238 0.081258 0.391564  
2002-04-22 09:13:08 51°28.735 2°26.841 35.561281 0.081258 0.391664  
2002-04-22 09:14:08 51°28.769 2°26.929 35.746301 0.081258 0.39176  
2002-04-22 09:15:08 51°28.791 2°26.962 35.545648 0.081258 0.39185  
2002-04-22 09:16:08 51°28.808 2°26.985 35.607667 0.081258 0.391951  
2002-04-22 09:17:08 51°28.83 2°27.01 35.034551 0.081258 0.392046  
2002-04-22 09:18:08 51°28.852 2°27.036 35.194883 0.081258 0.392142  
2002-04-22 09:19:08 51°28.875 2°27.065 35.155317 0.081258 0.392243  
2002-04-22 09:20:07 51°28.906 2°27.109 34.783539 0.081159 0.391852  
2002-04-22 09:21:07 51°29.016 2°27.129 35.003073 0.081159 0.39199  
2002-04-22 09:22:08 51°29.114 2°26.927 34.683222 0.081159 0.392033  
2002-04-22 09:23:07 51°29.284 2°26.704 34.531224 0.081159 0.392171  
2002-04-22 09:24:08 51°29.493 2°26.513 34.369296 0.081159 0.392277  
2002-04-22 09:25:08 51°29.694 2°26.311 34.257162 0.081159 0.392336  
2002-04-22 09:26:07 51°29.894 2°26.111 34.332681 0.081159 0.392432  
2002-04-22 09:27:07 51°30.098 2°25.908 33.698676 0.081159 0.392528  
2002-04-22 09:28:08 51°30.302 2°25.705 33.303603 0.081061 0.392131  
2002-04-22 09:29:08 51°30.429 2°25.42 33.433886 0.081061 0.392233  
2002-04-22 09:30:08 51°30.542 2°25.118 32.776494 0.081061 0.392355  
2002-04-22 09:31:07 51°30.669 2°24.829 33.101397 0.081061 0.392462  
2002-04-22 09:32:08 51°30.797 2°24.529 33.272401 0.081061 0.392574  
2002-04-22 09:33:08 51°30.923 2°24.237 32.683268 0.081061 0.392687  
2002-04-22 09:34:08 51°31.049 2°23.943 32.491559 0.080962 0.392295  
2002-04-22 09:35:07 51°31.172 2°23.656 32.537688 0.080962 0.392386  
2002-04-22 09:36:07 51°31.308 2°23.376 32.404382 0.080962 0.392498  
2002-04-22 09:37:08 51°31.447 2°23.088 31.752239 0.080962 0.3926  
2002-04-22 09:38:07 51°31.596 2°22.825 32.38424 0.080962 0.392723  
2002-04-22 09:39:08 51°31.761 2°22.567 31.509227 0.080863 0.392342  
2002-04-22 09:40:08 51°31.944 2°22.343 31.606407 0.080863 0.392449  
2002-04-22 09:41:08 51°32.14 2°22.155 31.83623 0.080863 0.39254  
2002-04-22 09:42:08 51°32.38 2°22.173 31.592275 0.080863 0.392668  
2002-04-22 09:43:08 51°32.579 2°22.42 31.424462 0.080863 0.392776  
2002-04-22 09:44:08 51°32.796 2°22.635 31.367541 0.080765 0.392405  
2002-04-22 09:45:07 51°33.006 2°22.866 30.679139 0.080765 0.392517  
2002-04-22 09:46:08 51°33.221 2°23.11 31.038527 0.080765 0.392603  
2002-04-22 09:47:08 51°33.431 2°23.348 30.913294 0.080765 0.392716  
2002-04-22 09:48:08 51°33.644 2°23.585 30.490481 0.080765 0.392851  
2002-04-22 09:49:08 51°33.854 2°23.822 30.665254 0.080666 0.392468  
2002-04-22 09:50:08 51°34.058 2°24.053 30.638212 0.080666 0.39257  
2002-04-22 09:51:07 51°34.26 2°24.274 29.946863 0.080666 0.392694  
2002-04-22 09:52:08 51°34.468 2°24.506 29.87402 0.080666 0.392824  
2002-04-22 09:53:08 51°34.672 2°24.735 30.581017 0.080666 0.392942  
2002-04-22 09:54:08 51°34.878 2°24.962 30.33586 0.080567 0.392554  
2002-04-22 09:55:08 51°35.082 2°25.194 29.704321 0.080567 0.392689  
2002-04-22 09:56:08 51°35.289 2°25.422 29.281749 0.080567 0.392824  
2002-04-22 09:57:08 51°35.496 2°25.651 29.575662 0.080567 0.392932  
2002-04-22 09:58:08 51°35.7 2°25.881 29.653189 0.080469 0.392554  
2002-04-22 09:59:08 51°35.904 2°26.107 29.419516 0.080469 0.392689  
2002-04-22 10:00:08 51°36.108 2°26.334 29.342958 0.080469 0.392808  
2002-04-22 10:01:08 51°36.267 2°26.632 29.276299 0.080469 0.392954  
2002-04-22 10:02:08 51°36.441 2°26.916 29.000776 0.08037 0.392565  
2002-04-22 10:03:08 51°36.615 2°27.199 28.855112 0.08037 0.392678  
2002-04-22 10:04:07 51°36.78 2°27.486 29.159004 0.08037 0.392824  
2002-04-22 10:05:08 51°36.955 2°27.777 28.868939 0.08037 0.392965  
2002-04-22 10:06:08 51°37.125 2°28.066 28.685077 0.080271 0.392608  
2002-04-22 10:07:08 51°37.294 2°28.357 28.472071 0.080271 0.392738  
2002-04-22 10:08:08 51°37.465 2°28.645 28.766072 0.080271 0.392874  
2002-04-22 10:09:08 51°37.634 2°28.932 28.459395 0.080271 0.393037  
2002-04-22 10:10:08 51°37.806 2°29.222 28.733569 0.080173 0.392701  
2002-04-22 10:11:08 51°37.977 2°29.515 28.413427 0.080173 0.392826  
2002-04-22 10:12:08 51°38.147 2°29.808 28.583072 0.080173 0.392973  
2002-04-22 10:13:08 51°38.319 2°30.101 28.330391 0.080173 0.393131  
2002-04-22 10:14:08 51°38.489 2°30.391 28.303762 0.080074 0.3928  
2002-04-22 10:15:08 51°38.66 2°30.681 28.135111 0.080074 0.392958  
2002-04-22 10:16:08 51°38.829 2°30.971 27.634943 0.080074 0.393105  
2002-04-22 10:17:08 51°38.997 2°31.258 28.234946 0.079975 0.392753  
2002-04-22 10:18:08 51°39.164 2°31.542 28.00214 0.079975 0.392927  
2002-04-22 10:19:08 51°39.335 2°31.824 28.279795 0.079975 0.393102  
2002-04-22 10:20:08 51°39.501 2°32.107 27.301086 0.079877 0.392771  
2002-04-22 10:21:08 51°39.668 2°32.387 28.062518 0.079877 0.392924  
2002-04-22 10:22:07 51°39.832 2°32.661 27.845442 0.079877 0.393082  
2002-04-22 10:23:08 51°40.001 2°32.943 27.474917 0.079778 0.392756  
2002-04-22 10:24:08 51°40.162 2°33.231 27.57808 0.079778 0.392931  
2002-04-22 10:25:08 51°40.321 2°33.519 27.187317 0.079778 0.393107  
2002-04-22 10:26:11 51°40.489 2°33.822 26.853203 0.079778 0.393271  
2002-04-22 10:27:11 51°40.652 2°34.109 26.937388 0.079679 0.392934  
2002-04-22 10:28:11 51°40.8 2°34.413 26.640681 0.079679 0.393104  
2002-04-22 10:29:10 51°40.929 2°34.732 27.154377 0.079679 0.393307  
2002-04-22 10:30:11 51°41.006 2°35.095 27.193252 0.079581 0.392975  
2002-04-22 10:31:11 51°40.967 2°35.454 26.605724 0.079581 0.393157  
2002-04-22 10:32:11 51°40.894 2°35.802 26.23246 0.079482 0.392851  
2002-04-22 10:33:11 51°40.8 2°36.133 26.34174 0.079482 0.393055  
2002-04-22 10:34:11 51°40.705 2°36.465 26.339999 0.079482 0.393298  
2002-04-22 10:35:11 51°40.609 2°36.8 26.899298 0.079383 0.393048  
2002-04-22 10:36:11 51°40.514 2°37.133 26.304046 0.079383 0.393318  
2002-04-22 10:37:11 51°40.418 2°37.467 27.015565 0.079383 0.393589  
2002-04-22 10:38:11 51°40.322 2°37.802 26.641861 0.079285 0.393367  
2002-04-22 10:39:10 51°40.23 2°38.13 26.851879 0.079285 0.393644  
2002-04-22 10:40:10 51°40.141 2°38.466 26.342926 0.079186 0.393416  
2002-04-22 10:41:11 51°40.054 2°38.807 26.811388 0.079186 0.393727  
2002-04-22 10:42:11 51°39.965 2°39.143 26.548103 0.079087 0.393471  
2002-04-22 10:43:10 51°39.877 2°39.477 26.039835 0.079087 0.39376  
2002-04-22 10:44:11 51°39.785 2°39.82 26.361599 0.078989 0.393537  
2002-04-22 10:45:11 51°39.696 2°40.162 26.515542 0.07889 0.393308  
2002-04-22 10:46:11 51°39.606 2°40.502 26.750869 0.07889 0.393587  
2002-04-22 10:47:11 51°39.517 2°40.842 26.409111 0.078791 0.393358  
2002-04-22 10:48:11 51°39.427 2°41.183 26.144236 0.078791 0.393621  
2002-04-22 10:49:11 51°39.335 2°41.519 25.973652 0.078693 0.393386  
2002-04-22 10:50:11 51°39.242 2°41.853 26.178112 0.078594 0.39314  
2002-04-22 10:51:11 51°39.148 2°42.188 25.989142 0.078594 0.393437  
2002-04-22 10:52:11 51°39.055 2°42.524 25.900178 0.078495 0.393202  
2002-04-22 10:53:11 51°38.961 2°42.861 26.121569 0.078396 0.392933  
2002-04-22 10:54:11 51°38.868 2°43.199 26.250605 0.078396 0.393197  
2002-04-22 10:55:11 51°38.775 2°43.536 25.746884 0.078298 0.392979  
2002-04-22 10:56:11 51°38.681 2°43.871 25.758314 0.078298 0.393226  
2002-04-22 10:57:11 51°38.587 2°44.204 25.434268 0.078199 0.392979  
2002-04-22 10:58:10 51°38.495 2°44.528 26.130451 0.078199 0.39325  
2002-04-22 10:59:11 51°38.391 2°44.857 25.591136 0.0781 0.393031  
2002-04-22 11:00:11 51°38.288 2°45.179 25.272364 0.0781 0.393268  
2002-04-22 11:01:11 51°38.161 2°45.476 25.564328 0.078002 0.393027  
2002-04-22 11:02:11 51°37.995 2°45.653 26.131714 0.077903 0.392807  
2002-04-22 11:03:11 51°37.799 2°45.587 25.514842 0.077903 0.393034  
2002-04-22 11:04:11 51°37.604 2°45.492 25.692886 0.077804 0.392763  
2002-04-22 11:05:11 51°37.408 2°45.4 25.494004 0.077804 0.393013  
2002-04-22 11:06:11 51°37.212 2°45.308 25.154702 0.077706 0.392759  
2002-04-22 11:07:11 51°37.015 2°45.21 25.239948 0.077706 0.392981  
2002-04-22 11:08:11 51°36.881 2°44.976 25.541144 0.077607 0.39271  
2002-04-22 11:09:11 51°36.901 2°44.65 25.487594 0.077607 0.392966  
2002-04-22 11:10:11 51°37.033 2°44.358 25.546426 0.077508 0.392661  
2002-04-22 11:11:11 51°37.175 2°44.074 25.269319 0.077508 0.392843  
2002-04-22 11:12:11 51°37.321 2°43.792 25.525334 0.077508 0.393026  
2002-04-22 11:13:11 51°37.466 2°43.509 25.329528 0.07741 0.392691  
2002-04-22 11:14:11 51°37.608 2°43.226 25.132217 0.07741 0.392851  
2002-04-22 11:15:11 51°37.75 2°42.941 25.506373 0.077311 0.392465  
2002-04-22 11:16:11 51°37.89 2°42.66 25.130183 0.077311 0.392585  
2002-04-22 11:17:11 51°38.031 2°42.381 24.903128 0.077311 0.39274  
2002-04-22 11:18:11 51°38.146 2°42.082 25.700736 0.077311 0.392854  
2002-04-22 11:19:11 51°38.161 2°41.739 25.07177 0.077212 0.392439  
2002-04-22 11:20:11 51°38.17 2°41.395 25.227346 0.077212 0.392605  
2002-04-22 11:21:11 51°38.173 2°41.055 24.958391 0.077212 0.392754  
2002-04-22 11:22:11 51°38.108 2°40.742 25.447059 0.077212 0.392857  
2002-04-22 11:23:11 51°38.053 2°40.416 24.935581 0.077212 0.392983  
2002-04-22 11:24:11 51°37.995 2°40.09 25.124494 0.077114 0.392625  
2002-04-22 11:25:11 51°37.937 2°39.768 24.818131 0.077114 0.392786  
2002-04-22 11:26:11 51°37.829 2°39.498 24.640938 0.077114 0.392935  
2002-04-22 11:27:11 51°37.637 2°39.381 24.8347 0.077114 0.393084  
2002-04-22 11:28:11 51°37.435 2°39.282 25.115414 0.077015 0.392772  
2002-04-22 11:29:11 51°37.232 2°39.184 24.799175 0.077015 0.392956  
2002-04-22 11:30:11 51°37.03 2°39.087 25.025609 0.077015 0.393129  
2002-04-22 11:31:11 51°36.827 2°38.993 24.475705 0.076916 0.392804  
2002-04-22 11:32:11 51°36.626 2°38.89 25.239798 0.076916 0.393023  
2002-04-22 11:33:11 51°36.427 2°38.78 24.658267 0.076916 0.393237  
2002-04-22 11:34:11 51°36.228 2°38.671 24.954011 0.076818 0.392901  
2002-04-22 11:35:11 51°36.03 2°38.566 24.681619 0.076818 0.393132  
2002-04-22 11:36:11 51°35.831 2°38.461 24.924475 0.076719 0.392807  
2002-04-22 11:37:11 51°35.632 2°38.359 22.287063 0.076719 0.393038  
2002-04-22 11:38:11 51°35.429 2°38.299 22.351017 0.07662 0.392695  
2002-04-22 11:39:11 51°35.225 2°38.235 22.486022 0.07662 0.392944  
2002-04-22 11:40:11 51°35.027 2°38.32 22.353327 0.076522 0.392648  
2002-04-22 11:41:11 51°34.901 2°38.608 22.402046 0.076522 0.392839  
2002-04-22 11:42:11 51°34.797 2°38.932 22.822931 0.076423 0.392589  
2002-04-22 11:43:11 51°34.694 2°39.258 22.50536 0.076423 0.392862  
2002-04-22 11:44:11 51°34.591 2°39.582 22.933797 0.076423 0.393071  
2002-04-22 11:45:11 51°34.484 2°39.902 23.449849 0.076324 0.392803  
2002-04-22 11:46:11 51°34.378 2°40.217 24.586496 0.076226 0.392494  
2002-04-22 11:47:11 51°34.27 2°40.533 26.056166 0.076226 0.39275  
2002-04-22 11:48:11 51°34.161 2°40.852 27.308328 0.076226 0.392989  
2002-04-22 11:49:10 51°34.054 2°41.167 28.713544 0.076127 0.39268  
2002-04-22 11:50:11 51°33.946 2°41.494 30.535307 0.076028 0.392399  
2002-04-22 11:51:11 51°33.839 2°41.818 32.285984 0.076028 0.392639  
2002-04-22 11:52:11 51°33.733 2°42.139 34.028461 0.076028 0.39285  
2002-04-22 11:53:11 51°33.627 2°42.453 35.526629 0.07593 0.392557  
2002-04-22 11:54:11 51°33.451 2°42.654 37.643806 0.07593 0.392833  
2002-04-22 11:55:11 51°33.237 2°42.668 39.082744 0.07593 0.393032  
2002-04-22 11:56:11 51°33.027 2°42.597 40.646596 0.075831 0.392751  
2002-04-22 11:57:11 51°32.821 2°42.491 42.616356 0.075831 0.393033  
2002-04-22 11:58:11 51°32.615 2°42.386 44.345965 0.075732 0.392746  
2002-04-22 11:59:11 51°32.409 2°42.281 45.731785 0.075732 0.392964  
2002-04-22 12:00:11 51°32.202 2°42.175 47.357772 0.075634 0.392671  
2002-04-22 12:01:11 51°31.996 2°42.068 49.060655 0.075634 0.392924  
2002-04-22 12:02:11 51°31.796 2°41.932 -999 0.075634 0.393131  
2002-04-22 12:03:11 51°31.596 2°41.792 -999 0.075535 0.392837  
2002-04-22 12:04:11 51°31.395 2°41.654 -999 0.075535 0.393032  
2002-04-22 12:05:11 51°31.193 2°41.516 -999 0.075436 0.392732  
2002-04-22 12:06:11 51°30.991 2°41.38 -999 0.075436 0.392922  
2002-04-22 12:07:11 51°30.816 2°41.177 -999 0.075436 0.393129  
2002-04-22 12:08:11 51°30.697 2°40.884 -999 0.075338 0.392829  
2002-04-22 12:09:11 51°30.585 2°40.579 -999 0.075338 0.393013  
2002-04-22 12:10:11 51°30.472 2°40.273 -999 0.075338 0.393203  
2002-04-22 12:11:11 51°30.359 2°39.967 -999 0.075239 0.392843  
2002-04-22 12:12:11 51°30.245 2°39.661 -999 0.075239 0.393039  
2002-04-22 12:13:11 51°30.159 2°39.338 -999 0.07514 0.392685  
2002-04-22 12:14:11 51°30.147 2°38.988 -999 0.07514 0.392876  
2002-04-22 12:15:11 51°30.144 2°38.634 -999 0.07514 0.393042  
2002-04-22 12:16:11 51°30.14 2°38.284 -999 0.075042 0.39267  
2002-04-22 12:17:11 51°30.137 2°37.93 -999 0.075042 0.392813  
2002-04-22 12:18:11 51°30.124 2°37.575 -999 0.075042 0.392956  
2002-04-22 12:19:11 51°30.108 2°37.221 -999 0.074943 0.392553  
2002-04-22 12:20:11 51°30.094 2°36.866 -999 0.074943 0.392685  
2002-04-22 12:21:11 51°30.052 2°36.528 -999 0.074943 0.392822  
2002-04-22 12:22:11 51°29.973 2°36.205 -999 0.074943 0.392941  
2002-04-22 12:23:11 51°29.904 2°35.877 -999 0.074844 0.392574  
2002-04-22 12:24:11 51°29.835 2°35.549 -999 0.074844 0.392724  
2002-04-22 12:25:11 51°29.766 2°35.219 -999 0.074844 0.392903  
2002-04-22 12:26:11 51°29.698 2°34.886 6.828501 0.074844 0.393083  
2002-04-22 12:27:11 51°29.631 2°34.551 -999 0.074746 0.392715  
2002-04-22 12:28:11 51°29.559 2°34.217 -999 0.074746 0.392913  
2002-04-22 12:29:11 51°29.392 2°34.018 -999 0.074746 0.393093  
2002-04-22 12:30:11 51°29.185 2°34.08 -999 0.074647 0.392725  
2002-04-22 12:31:11 51°28.987 2°34.238 -999 0.074647 0.392929  
2002-04-22 12:32:11 51°28.782 2°34.38 -999 0.074647 0.393163  
2002-04-22 12:33:11 51°28.577 2°34.523 -999 0.074548 0.392861  
2002-04-22 12:34:11 51°28.375 2°34.664 48.07841 0.074548 0.393096  
2002-04-22 12:35:11 51°28.17 2°34.803 -999 0.07445 0.392805  
2002-04-22 12:36:11 51°27.97 2°34.949 -999 0.07445 0.393034  
2002-04-22 12:37:11 51°27.769 2°35.099 -999 0.074351 0.392767  
2002-04-22 12:38:11 51°27.567 2°35.248 -999 0.074351 0.393027  
2002-04-22 12:39:11 51°27.366 2°35.394 -999 0.074252 0.392736  
2002-04-22 12:40:11 51°27.164 2°35.541 -999 0.074252 0.392972  
2002-04-22 12:41:11 51°26.963 2°35.694 -999 0.074252 0.393226  
2002-04-22 12:42:11 51°26.766 2°35.855 -999 0.074154 0.392923  
2002-04-22 12:43:11 51°26.568 2°36.018 -999 0.074154 0.393171  
2002-04-22 12:44:11 51°26.372 2°36.18 -999 0.074055 0.392874  
2002-04-22 12:45:11 51°26.179 2°36.342 -999 0.074055 0.393111  
2002-04-22 12:46:11 51°25.981 2°36.495 -999 0.073956 0.392813  
2002-04-22 12:47:11 51°25.785 2°36.648 -999 0.073956 0.393032  
2002-04-22 12:48:11 51°25.589 2°36.811 -999 0.073857 0.392764  
2002-04-22 12:49:11 51°25.396 2°36.969 -999 0.073857 0.393001  
2002-04-22 12:50:11 51°25.201 2°37.127 -999 0.073759 0.392697  
2002-04-22 12:51:11 51°25.007 2°37.288 -999 0.073759 0.39291  
2002-04-22 12:52:11 51°24.814 2°37.455 -999 0.07366 0.392623  
2002-04-22 12:53:11 51°24.623 2°37.632 -999 0.07366 0.392856  
2002-04-22 12:54:11 51°24.435 2°37.816 -999 0.07366 0.393088  
2002-04-22 12:55:11 51°24.244 2°38.009 -999 0.073561 0.392771  
2002-04-22 12:56:11 51°24.053 2°38.203 -999 0.073561 0.392991  
2002-04-22 12:57:11 51°23.854 2°38.368 -999 0.073463 0.392667  
2002-04-22 12:58:11 51°23.648 2°38.52 -999 0.073463 0.392876  
2002-04-22 12:59:11 51°23.437 2°38.644 -999 0.073364 0.392539  
2002-04-22 13:00:11 51°23.22 2°38.751 -999 0.073364 0.392766  
2002-04-22 13:01:11 51°23.002 2°38.85 -999 0.073364 0.393  
2002-04-22 13:02:11 51°22.786 2°38.948 -999 0.073265 0.392675  
2002-04-22 13:03:11 51°22.573 2°39.045 -999 0.073265 0.392909  
2002-04-22 13:04:11 51°22.364 2°39.139 -999 0.073265 0.393144  
2002-04-22 13:05:11 51°22.153 2°39.234 -999 0.073167 0.392831  
2002-04-22 13:06:11 51°21.94 2°39.325 -999 0.073167 0.39306  
2002-04-22 13:07:11 51°21.735 2°39.45 -999 0.073068 0.392734  
2002-04-22 13:08:11 51°21.537 2°39.6 -999 0.073068 0.392975  
2002-04-22 13:09:11 51°21.392 2°39.86 -999 0.072969 0.392631  
2002-04-22 13:10:11 51°21.252 2°40.139 -999 0.072969 0.392854  
2002-04-22 13:11:11 51°21.143 2°40.441 -999 0.072871 0.392509  
2002-04-22 13:12:11 51°21.084 2°40.78 -999 0.072871 0.392689  
2002-04-22 13:13:11 51°21.003 2°41.112 -999 0.072871 0.392875  
2002-04-22 13:14:11 51°20.922 2°41.446 -999 0.072772 0.392493  
2002-04-22 13:15:11 51°20.841 2°41.782 -999 0.072772 0.392654  
2002-04-22 13:16:11 51°20.776 2°42.113 -999 0.072772 0.392816  
2002-04-22 13:17:11 51°20.71 2°42.439 -999 0.072673 0.392421  
2002-04-22 13:18:11 51°20.652 2°42.772 -999 0.072673 0.392576  
2002-04-22 13:19:11 51°20.603 2°43.11 -999 0.072673 0.392719  
2002-04-22 13:20:11 51°20.551 2°43.45 -999 0.072673 0.392856  
2002-04-22 13:21:11 51°20.499 2°43.789 -999 0.072575 0.392442  
2002-04-22 13:22:11 51°20.447 2°44.129 -999 0.072575 0.392573  
2002-04-22 13:23:11 51°20.396 2°44.471 -999 0.072575 0.392697  
2002-04-22 13:24:11 51°20.33 2°44.808 -999 0.072476 0.392289  
2002-04-22 13:25:11 51°20.262 2°45.147 -999 0.072476 0.392426  
2002-04-22 13:26:11 51°20.187 2°45.481 -999 0.072476 0.392551  
2002-04-22 13:27:11 51°20.09 2°45.799 -999 0.072476 0.392688  
2002-04-22 13:28:11 51°19.976 2°46.094 -999 0.072476 0.392826  
2002-04-22 13:29:11 51°19.866 2°46.392 -999 0.072377 0.39241  
2002-04-22 13:30:11 51°19.754 2°46.695 -999 0.072377 0.392554  
2002-04-22 13:31:11 51°19.644 2°47 -999 0.072377 0.392692  
2002-04-22 13:32:11 51°19.53 2°47.305 -999 0.072377 0.392829  
2002-04-22 13:33:11 51°19.416 2°47.607 -999 0.072279 0.392414  
2002-04-22 13:34:11 51°19.301 2°47.909 -999 0.072279 0.392558  
2002-04-22 13:35:11 51°19.188 2°48.214 -999 0.072279 0.392695  
2002-04-22 13:36:11 51°19.074 2°48.51 -999 0.072279 0.392821  
2002-04-22 13:37:11 51°18.958 2°48.799 -999 0.07218 0.392405  
2002-04-22 13:38:11 51°18.842 2°49.086 -999 0.07218 0.392543  
2002-04-22 13:39:11 51°18.726 2°49.37 -999 0.07218 0.392674  
2002-04-22 13:40:11 51°18.609 2°49.655 -999 0.07218 0.392819  
2002-04-22 13:41:11 51°18.488 2°49.946 -999 0.072081 0.392402  
2002-04-22 13:42:11 51°18.368 2°50.236 27.326247 0.072081 0.39254  
2002-04-22 13:43:11 51°18.244 2°50.525 -999 0.072081 0.392673  
2002-04-22 13:44:11 51°18.124 2°50.815 -999 0.072081 0.392811  
2002-04-22 13:45:11 51°18.004 2°51.106 -999 0.071983 0.392375  
2002-04-22 13:46:11 51°17.886 2°51.395 -999 0.071983 0.392507  
2002-04-22 13:47:11 51°17.768 2°51.683 -999 0.071983 0.392639  
2002-04-22 13:48:11 51°17.647 2°51.973 -999 0.071983 0.392753  
2002-04-22 13:49:11 51°17.489 2°52.217 -999 0.071983 0.392879  
2002-04-22 13:50:11 51°17.294 2°52.402 -999 0.071884 0.392455  
2002-04-22 13:51:11 51°17.098 2°52.583 -999 0.071884 0.392568  
2002-04-22 13:52:11 51°16.899 2°52.75 -999 0.071884 0.392707  
2002-04-22 13:53:11 51°16.689 2°52.89 -999 0.071884 0.392853  
2002-04-22 13:54:11 51°16.476 2°53.037 -999 0.071884 0.393011  
2002-04-22 13:55:11 51°16.265 2°53.181 -999 0.071785 0.392611  
2002-04-22 13:56:11 51°16.057 2°53.329 -999 0.071785 0.39277  
2002-04-22 13:57:11 51°15.872 2°53.529 -999 0.071785 0.392909  
2002-04-22 13:58:11 51°15.684 2°53.727 -999 0.071785 0.393061  
2002-04-22 13:59:11 51°15.499 2°53.912 -999 0.071687 0.392655  
2002-04-22 14:00:11 51°15.315 2°54.092 -999 0.071687 0.392794  
2002-04-22 14:01:11 51°15.133 2°54.27 -999 0.071687 0.392921  
2002-04-22 14:02:11 51°14.947 2°54.43 -999 0.071588 0.392502  
2002-04-22 14:03:11 51°14.768 2°54.577 45.725026 0.071588 0.392648  
2002-04-22 14:04:11 51°14.611 2°54.755 -999 0.071588 0.392768  
2002-04-22 14:05:11 51°14.471 2°54.927 -999 0.071588 0.392883  
2002-04-22 14:06:11 51°14.352 2°55.106 -999 0.071588 0.393004  
2002-04-22 14:07:11 51°14.263 2°55.266 -999 0.071489 0.392571  
2002-04-22 14:08:12 51°14.197 2°55.351 -999 0.071489 0.392685  
2002-04-22 14:09:11 51°14.137 2°55.404 -999 0.071489 0.392806  
2002-04-22 14:10:11 51°14.073 2°55.455 -999 0.071489 0.392889  
2002-04-22 14:11:12 51°14.001 2°55.511 -999 0.071489 0.392991  
2002-04-22 14:12:12 51°13.928 2°55.562 -999 0.071391 0.392507  
2002-04-22 14:13:12 51°13.861 2°55.611 -999 0.071391 0.392583  
2002-04-22 14:14:11 51°13.805 2°55.654 -999 0.071391 0.392653  
2002-04-22 14:15:11 51°13.763 2°55.694 -999 0.071391 0.39273  
2002-04-22 14:16:11 51°13.736 2°55.747 -999 0.071391 0.392781  
2002-04-22 14:17:11 51°13.716 2°55.803 -999 0.071391 0.392838  
2002-04-22 14:18:11 51°13.696 2°55.853 -999 0.071391 0.392902  
2002-04-22 14:19:11 51°13.688 2°55.895 -999 0.071391 0.392947  
2002-04-22 14:20:11 51°13.686 2°55.905 -999 0.071391 0.392985  
2002-04-22 14:21:11 51°13.687 2°55.906 -999 0.071292 0.392469  
2002-04-22 14:22:12 51°13.688 2°55.905 -999 0.071391 0.393062  
2002-04-22 14:23:11 51°13.688 2°55.905 -999 0.071391 0.393107  
2002-04-22 14:24:12 51°13.688 2°55.905 -999 0.071391 0.39312